createdAt,value
2023-02-12T00:02:18.999Z,12.23
2023-02-12T00:05:05.215Z,13.25
2023-02-12T00:07:51.232Z,13.75
2023-02-12T00:10:41.564Z,11.98
2023-02-12T00:13:31.335Z,13.82
2023-02-12T00:16:20.632Z,12.95
2023-02-12T00:19:06.555Z,13.45
2023-02-12T00:21:52.434Z,12.60
2023-02-12T00:24:38.328Z,13.85
2023-02-12T00:27:24.894Z,13.07
2023-02-12T00:30:11.383Z,13.23
2023-02-12T00:32:57.367Z,12.73
2023-02-12T00:35:43.197Z,12.52
2023-02-12T00:38:29.399Z,13.13
2023-02-12T00:41:15.274Z,12.18
2023-02-12T00:44:01.130Z,13.70
2023-02-12T00:46:47.316Z,12.93
2023-02-12T00:49:35.645Z,16.33
2023-02-12T00:52:21.749Z,19.20
2023-02-12T00:55:09.456Z,14.85
2023-02-12T00:57:55.329Z,15.32
2023-02-12T01:00:41.300Z,12.55
2023-02-12T01:03:27.235Z,13.90
2023-02-12T01:06:13.090Z,12.82
2023-02-12T01:08:58.803Z,11.63
2023-02-12T01:11:44.605Z,11.30
2023-02-12T01:14:30.374Z,11.40
2023-02-12T01:17:16.260Z,11.80
2023-02-12T01:20:05.917Z,11.45
2023-02-12T01:22:52.605Z,10.55
2023-02-12T01:25:38.974Z,11.23
2023-02-12T01:28:24.904Z,11.30
2023-02-12T01:31:17.247Z,11.93
2023-02-12T01:34:03.002Z,10.90
2023-02-12T01:36:49.097Z,10.95
2023-02-12T01:39:35.960Z,11.02
2023-02-12T01:42:22.089Z,11.27
2023-02-12T01:45:14.090Z,12.15
2023-02-12T01:48:00.565Z,10.95
2023-02-12T01:50:48.894Z,10.43
2023-02-12T01:53:37.550Z,15.10
2023-02-12T01:56:24.590Z,28.15
2023-02-12T01:59:10.855Z,37.53
2023-02-12T02:01:56.773Z,41.17
2023-02-12T02:04:54.914Z,38.95
2023-02-12T02:07:42.218Z,48.38
2023-02-12T02:10:30.116Z,48.25
2023-02-12T02:13:34.761Z,50.25
2023-02-12T02:16:26.421Z,48.90
2023-02-12T02:19:30.869Z,42.17
2023-02-12T02:22:28.477Z,43.30
2023-02-12T02:25:51.646Z,37.92
2023-02-12T02:29:02.275Z,37.58
2023-02-12T02:31:54.564Z,37.25
2023-02-12T02:35:07.629Z,39.03
2023-02-12T02:38:15.000Z,33.50
2023-02-12T02:41:07.007Z,30.20
2023-02-12T02:43:53.641Z,33.15
2023-02-12T02:46:46.360Z,35.30
2023-02-12T02:52:25.167Z,38.65
2023-02-12T02:55:13.465Z,41.20
2023-02-12T02:58:03.605Z,41.13
2023-02-12T03:00:59.380Z,58.47
2023-02-12T03:03:51.111Z,68.25
2023-02-12T03:06:57.832Z,66.07
2023-02-12T03:09:50.340Z,60.30
2023-02-12T03:12:47.581Z,57.25
2023-02-12T03:15:58.625Z,56.10
2023-02-12T03:19:06.643Z,52.47
2023-02-12T03:21:58.669Z,45.35
2023-02-12T03:24:48.824Z,54.83
2023-02-12T03:27:38.816Z,55.72
2023-02-12T03:30:40.460Z,55.58
2023-02-12T03:33:38.073Z,51.08
2023-02-12T03:36:53.180Z,46.78
2023-02-12T03:39:43.828Z,48.50
2023-02-12T03:42:38.645Z,47.67
2023-02-12T03:45:55.200Z,47.20
2023-02-12T03:48:56.516Z,45.38
2023-02-12T03:51:45.221Z,43.90
2023-02-12T03:54:31.015Z,41.17
2023-02-12T03:57:20.490Z,41.70
2023-02-12T04:00:11.981Z,42.72
2023-02-12T04:03:01.028Z,49.00
2023-02-12T04:05:46.940Z,54.50
2023-02-12T04:08:33.241Z,56.33
2023-02-12T04:11:45.187Z,52.50
2023-02-12T04:14:46.979Z,54.72
2023-02-12T04:17:47.364Z,53.70
2023-02-12T04:20:54.298Z,56.28
2023-02-12T04:23:48.952Z,58.83
2023-02-12T04:26:40.068Z,56.38
2023-02-12T04:29:44.459Z,55.58
2023-02-12T04:32:35.342Z,53.80
2023-02-12T04:35:35.941Z,53.33
2023-02-12T04:38:25.540Z,54.40
2023-02-12T04:41:11.491Z,52.95
2023-02-12T04:43:57.213Z,54.80
2023-02-12T04:46:42.988Z,57.38
2023-02-12T04:49:28.912Z,57.67
2023-02-12T04:52:14.591Z,55.08
2023-02-12T04:55:00.520Z,55.25
2023-02-12T04:57:46.345Z,53.78
2023-02-12T05:00:32.830Z,55.75
2023-02-12T05:03:18.412Z,54.53
2023-02-12T05:06:06.017Z,57.33
2023-02-12T05:08:55.280Z,59.30
2023-02-12T05:11:41.367Z,60.83
2023-02-12T05:14:27.336Z,59.38
2023-02-12T05:17:13.217Z,61.47
2023-02-12T05:19:59.153Z,68.63
2023-02-12T05:22:44.963Z,75.18
2023-02-12T05:25:32.094Z,67.93
2023-02-12T05:28:18.235Z,63.92
2023-02-12T05:31:06.506Z,62.17
2023-02-12T05:33:52.415Z,60.78
2023-02-12T05:36:38.329Z,57.58
2023-02-12T05:39:24.135Z,57.50
2023-02-12T05:42:10.002Z,53.28
2023-02-12T05:44:55.863Z,53.10
2023-02-12T05:47:41.615Z,52.10
2023-02-12T05:50:27.522Z,52.50
2023-02-12T05:53:18.861Z,51.42
2023-02-12T05:56:19.462Z,53.10
2023-02-12T05:59:14.189Z,51.67
2023-02-12T06:02:00.171Z,48.53
2023-02-12T06:04:48.526Z,48.08
2023-02-12T06:07:34.497Z,46.65
2023-02-12T06:10:20.463Z,46.20
2023-02-12T06:13:06.714Z,44.38
2023-02-12T06:15:52.549Z,46.38
2023-02-12T06:18:38.362Z,46.33
2023-02-12T06:21:27.838Z,45.95
2023-02-12T06:24:15.160Z,42.65
2023-02-12T06:27:01.048Z,44.90
2023-02-12T06:29:46.908Z,45.97
2023-02-12T06:32:32.620Z,44.83
2023-02-12T06:35:18.322Z,49.42
2023-02-12T06:38:04.879Z,50.22
2023-02-12T06:40:50.886Z,49.38
2023-02-12T06:43:37.233Z,53.55
2023-02-12T06:46:23.203Z,49.50
2023-02-12T06:49:12.246Z,51.03
2023-02-12T06:51:58.003Z,51.85
2023-02-12T06:54:43.944Z,50.17
2023-02-12T06:57:30.146Z,49.70
2023-02-12T07:00:16.563Z,51.13
2023-02-12T07:03:02.702Z,50.72
2023-02-12T07:05:48.424Z,51.15
2023-02-12T07:08:34.319Z,44.90
2023-02-12T07:11:24.200Z,48.42
2023-02-12T07:14:19.200Z,49.63
2023-02-12T07:17:05.603Z,41.95
2023-02-12T07:19:51.294Z,51.47
2023-02-12T07:22:37.421Z,48.67
2023-02-12T07:25:23.423Z,41.72
2023-02-12T07:28:09.385Z,42.63
2023-02-12T07:30:55.198Z,20.67
2023-02-12T07:33:41.516Z,17.95
2023-02-12T07:36:30.868Z,8.98
2023-02-12T07:39:16.993Z,8.98
2023-02-12T07:42:02.797Z,7.20
2023-02-12T07:44:48.890Z,7.18
2023-02-12T07:47:38.548Z,6.70
2023-02-12T07:50:24.467Z,7.85
2023-02-12T07:53:10.193Z,6.57
2023-02-12T07:55:56.482Z,6.57
2023-02-12T07:58:45.089Z,6.68
2023-02-12T08:01:39.100Z,6.55
2023-02-12T08:04:25.718Z,6.47
2023-02-12T08:07:11.825Z,6.03
2023-02-12T08:09:57.799Z,6.40
2023-02-12T08:12:43.760Z,8.10
2023-02-12T08:15:29.584Z,8.57
2023-02-12T08:18:15.267Z,8.85
2023-02-12T08:21:04.917Z,9.90
2023-02-12T08:23:52.034Z,9.30
2023-02-12T08:26:39.184Z,8.88
2023-02-12T08:29:30.411Z,7.53
2023-02-12T08:32:17.253Z,6.93
2023-02-12T08:35:03.255Z,6.20
2023-02-12T08:37:49.030Z,5.68
2023-02-12T08:40:35.035Z,6.40
2023-02-12T08:43:20.839Z,7.38
2023-02-12T08:46:35.060Z,5.72
2023-02-12T08:49:23.400Z,5.75
2023-02-12T08:52:09.330Z,5.25
2023-02-12T08:54:55.045Z,5.38
2023-02-12T08:57:42.454Z,5.60
2023-02-12T09:00:28.177Z,4.78
2023-02-12T09:03:13.873Z,6.85
2023-02-12T09:06:03.434Z,6.13
2023-02-12T09:08:49.618Z,5.38
2023-02-12T09:11:35.776Z,5.10
2023-02-12T09:14:25.320Z,6.00
2023-02-12T09:17:11.345Z,5.90
2023-02-12T09:19:57.669Z,6.25
2023-02-12T09:22:43.899Z,4.57
2023-02-12T09:25:29.859Z,5.45
2023-02-12T09:28:15.663Z,6.15
2023-02-12T09:31:08.745Z,5.85
2023-02-12T09:33:57.645Z,4.72
2023-02-12T09:36:43.552Z,5.70
2023-02-12T09:39:30.862Z,5.35
2023-02-12T09:42:45.443Z,6.47
2023-02-12T09:45:35.718Z,6.03
2023-02-12T09:48:27.818Z,4.90
2023-02-12T09:51:14.140Z,5.40
2023-02-12T09:54:18.739Z,5.53
2023-02-12T09:57:12.218Z,8.18
2023-02-12T10:00:24.903Z,7.32
2023-02-12T10:03:16.818Z,6.97
2023-02-12T10:06:08.514Z,7.50
2023-02-12T10:09:00.555Z,6.15
2023-02-12T10:12:22.737Z,7.22
2023-02-12T10:15:33.483Z,6.03
2023-02-12T10:18:28.722Z,6.40
2023-02-12T10:21:23.519Z,5.40
2023-02-12T10:24:44.381Z,5.60
2023-02-12T10:27:48.701Z,5.38
2023-02-12T10:30:52.604Z,5.57
2023-02-12T10:33:42.810Z,5.60
2023-02-12T10:36:45.031Z,7.28
2023-02-12T10:39:43.873Z,6.28
2023-02-12T10:42:36.402Z,6.05
2023-02-12T10:48:35.550Z,6.25
2023-02-12T10:51:38.353Z,6.28
2023-02-12T10:57:22.564Z,5.97
2023-02-12T11:00:35.780Z,6.75
2023-02-12T11:06:29.515Z,21.35
2023-02-12T11:09:28.460Z,7.43
2023-02-12T11:12:26.749Z,7.50
2023-02-12T11:15:20.185Z,8.18
2023-02-12T11:18:08.574Z,7.10
2023-02-12T11:20:59.106Z,8.40
2023-02-12T11:23:46.526Z,9.75
2023-02-12T11:26:33.634Z,10.18
2023-02-12T11:29:24.240Z,8.88
2023-02-12T11:32:18.885Z,8.65
2023-02-12T11:35:25.091Z,8.63
2023-02-12T11:38:24.550Z,10.27
2023-02-12T11:41:36.336Z,10.25
2023-02-12T11:44:34.925Z,9.88
2023-02-12T11:47:29.228Z,11.02
2023-02-12T11:50:26.660Z,11.38
2023-02-12T11:53:22.341Z,11.18
2023-02-12T11:56:10.852Z,12.02
2023-02-12T11:59:11.797Z,11.15
2023-02-12T12:02:02.301Z,12.23
2023-02-12T12:04:50.356Z,12.68
2023-02-12T12:07:37.206Z,12.70
2023-02-12T12:10:34.611Z,14.73
2023-02-12T12:13:26.143Z,14.82
2023-02-12T12:16:38.376Z,15.50
2023-02-12T12:19:47.329Z,16.58
2023-02-12T12:22:39.868Z,16.00
2023-02-12T12:25:46.477Z,13.02
2023-02-12T12:28:45.941Z,14.75
2023-02-12T12:31:41.067Z,15.48
2023-02-12T12:34:28.075Z,13.95
2023-02-12T12:37:29.445Z,16.40
2023-02-12T12:40:30.452Z,17.63
2023-02-12T12:43:55.129Z,15.93
2023-02-12T12:46:48.099Z,15.07
2023-02-12T12:49:49.651Z,15.00
2023-02-12T12:52:44.943Z,15.02
2023-02-12T12:56:07.834Z,17.23
2023-02-12T12:59:06.013Z,18.33
2023-02-12T13:01:54.740Z,17.10
2023-02-12T13:04:56.939Z,19.02
2023-02-12T13:08:18.422Z,18.20
2023-02-12T13:11:23.357Z,19.08
2023-02-12T13:14:40.394Z,19.40
2023-02-12T13:17:32.141Z,20.83
2023-02-12T13:20:34.959Z,22.55
2023-02-12T13:23:58.466Z,21.48
2023-02-12T13:29:37.455Z,20.33
2023-02-12T13:32:29.861Z,23.00
2023-02-12T13:35:26.103Z,20.58
2023-02-12T13:38:19.409Z,19.95
2023-02-12T13:41:07.807Z,19.88
2023-02-12T13:44:32.634Z,20.00
2023-02-12T13:47:44.554Z,18.23
2023-02-12T13:50:36.566Z,18.13
2023-02-12T13:53:37.662Z,20.30
2023-02-12T13:56:34.675Z,23.05
2023-02-12T13:59:35.637Z,20.42
2023-02-12T14:02:33.937Z,22.73
2023-02-12T14:05:30.990Z,20.65
2023-02-12T14:08:36.268Z,19.15
2023-02-12T14:11:24.702Z,21.25
2023-02-12T14:14:10.827Z,22.10
2023-02-12T14:16:57.366Z,20.33
2023-02-12T14:19:55.435Z,20.80
2023-02-12T14:22:44.168Z,21.40
2023-02-12T14:25:37.309Z,21.73
2023-02-12T14:28:44.676Z,21.27
2023-02-12T14:31:33.745Z,20.42
2023-02-12T14:34:22.644Z,21.13
2023-02-12T14:37:12.551Z,24.65
2023-02-12T14:40:34.077Z,20.13
2023-02-12T14:43:54.877Z,19.92
2023-02-12T14:47:13.156Z,23.17
2023-02-12T14:50:08.934Z,21.90
2023-02-12T14:52:59.835Z,22.38
2023-02-12T14:55:46.975Z,22.90
2023-02-12T14:58:33.213Z,23.48
2023-02-12T15:01:31.105Z,24.45
2023-02-12T15:04:28.477Z,23.50
2023-02-12T15:07:17.708Z,25.48
2023-02-12T15:10:10.717Z,24.83
2023-02-12T15:13:30.199Z,22.05
2023-02-12T15:16:22.881Z,21.85
2023-02-12T15:19:27.049Z,24.73
2023-02-12T15:22:18.207Z,24.65
2023-02-12T15:25:24.649Z,22.73
2023-02-12T15:28:20.096Z,22.52
2023-02-12T15:31:10.642Z,23.45
2023-02-12T15:33:58.739Z,21.77
2023-02-12T15:36:45.858Z,24.98
2023-02-12T15:39:43.762Z,21.17
2023-02-12T15:42:40.579Z,22.05
2023-02-12T15:45:28.810Z,21.35
2023-02-12T15:48:19.560Z,21.95
2023-02-12T15:51:10.189Z,21.02
2023-02-12T15:53:57.485Z,20.67
2023-02-12T15:56:43.443Z,21.98
2023-02-12T15:59:29.474Z,20.00
2023-02-12T16:02:22.038Z,20.23
2023-02-12T16:05:08.130Z,21.50
2023-02-12T16:07:54.506Z,21.33
2023-02-12T16:10:44.064Z,20.92
2023-02-12T16:13:33.574Z,21.73
2023-02-12T16:16:22.705Z,20.45
2023-02-12T16:19:20.687Z,19.30
2023-02-12T16:22:15.327Z,22.58
2023-02-12T16:25:01.732Z,18.52
2023-02-12T16:28:18.456Z,19.77
2023-02-12T16:31:14.307Z,17.95
2023-02-12T16:34:01.094Z,19.15
2023-02-12T16:36:47.275Z,19.27
2023-02-12T16:39:55.562Z,18.48
2023-02-12T16:42:47.676Z,20.45
2023-02-12T16:45:35.680Z,20.23
2023-02-12T16:48:25.264Z,17.60
2023-02-12T16:51:28.364Z,19.50
2023-02-12T16:54:27.902Z,19.70
2023-02-12T16:57:13.784Z,18.63
2023-02-12T16:59:59.628Z,19.85
2023-02-12T17:02:47.154Z,20.15
2023-02-12T17:05:33.059Z,19.45
2023-02-12T17:08:21.533Z,19.08
2023-02-12T17:11:09.844Z,19.27
2023-02-12T17:13:57.882Z,19.90
2023-02-12T17:16:44.722Z,18.33
2023-02-12T17:19:30.597Z,17.92
2023-02-12T17:22:25.026Z,19.33
2023-02-12T17:25:12.246Z,20.63
2023-02-12T17:27:58.740Z,19.48
2023-02-12T17:30:44.950Z,19.85
2023-02-12T17:33:30.911Z,20.85
2023-02-12T17:36:16.734Z,21.52
2023-02-12T17:39:05.020Z,20.75
2023-02-12T17:41:51.860Z,18.48
2023-02-12T17:44:37.685Z,19.20
2023-02-12T17:47:23.818Z,19.20
2023-02-12T17:50:14.775Z,19.25
2023-02-12T17:53:00.660Z,18.77
2023-02-12T17:55:46.625Z,18.63
2023-02-12T17:58:32.506Z,18.52
2023-02-12T18:01:21.001Z,19.17
2023-02-12T18:04:07.160Z,21.00
2023-02-12T18:06:53.193Z,20.45
2023-02-12T18:09:39.649Z,19.95
2023-02-12T18:12:25.751Z,19.90
2023-02-12T18:15:11.564Z,18.40
2023-02-12T18:17:57.502Z,19.48
2023-02-12T18:20:44.143Z,19.50
2023-02-12T18:23:30.159Z,19.98
2023-02-12T18:26:18.145Z,19.02
2023-02-12T18:29:04.554Z,20.77
2023-02-12T18:31:51.522Z,18.60
2023-02-12T18:34:37.456Z,20.02
2023-02-12T18:37:23.662Z,20.27
2023-02-12T18:40:10.758Z,19.27
2023-02-12T18:42:56.983Z,18.77
2023-02-12T18:45:43.005Z,20.95
2023-02-12T18:48:29.242Z,19.90
2023-02-12T18:51:23.868Z,18.90
2023-02-12T18:54:13.642Z,19.88
2023-02-12T18:56:59.666Z,18.35
2023-02-12T18:59:45.901Z,17.98
2023-02-12T19:02:31.944Z,18.77
2023-02-12T19:05:17.846Z,17.73
2023-02-12T19:08:03.883Z,17.77
2023-02-12T19:10:49.948Z,18.52
2023-02-12T19:13:36.167Z,18.83
2023-02-12T19:16:23.808Z,19.13
2023-02-12T19:19:09.670Z,20.13
2023-02-12T19:21:55.794Z,19.77
2023-02-12T19:24:47.021Z,18.98
2023-02-12T19:27:33.572Z,18.38
2023-02-12T19:30:20.023Z,20.33
2023-02-12T19:33:06.490Z,21.48
2023-02-12T19:35:52.818Z,19.00
2023-02-12T19:38:39.056Z,19.27
2023-02-12T19:41:27.228Z,21.08
2023-02-12T19:44:17.994Z,20.73
2023-02-12T19:47:04.944Z,22.00
2023-02-12T19:49:50.950Z,23.67
2023-02-12T19:52:37.244Z,24.38
2023-02-12T19:55:23.365Z,26.15
2023-02-12T19:58:09.520Z,20.58
2023-02-12T20:00:55.826Z,22.00
2023-02-12T20:03:42.477Z,19.08
2023-02-12T20:06:31.944Z,18.17
2023-02-12T20:09:19.204Z,19.27
2023-02-12T20:12:05.616Z,20.25
2023-02-12T20:14:51.404Z,19.35
2023-02-12T20:17:37.350Z,19.25
2023-02-12T20:20:23.068Z,25.40
2023-02-12T20:23:08.928Z,19.63
2023-02-12T20:25:54.830Z,19.48
2023-02-12T20:28:44.893Z,20.00
2023-02-12T20:31:33.958Z,20.38
2023-02-12T20:34:20.788Z,20.27
2023-02-12T20:37:08.043Z,21.52
2023-02-12T20:39:54.596Z,21.25
2023-02-12T20:42:41.068Z,22.25
2023-02-12T20:45:27.277Z,21.80
2023-02-12T20:48:13.336Z,21.83
2023-02-12T20:51:06.855Z,22.15
2023-02-12T20:53:55.369Z,21.00
2023-02-12T20:56:41.240Z,19.60
2023-02-12T20:59:27.143Z,19.05
2023-02-12T21:02:13.032Z,18.23
2023-02-12T21:04:59.318Z,18.23
2023-02-12T21:07:46.175Z,17.08
2023-02-12T21:10:32.923Z,18.40
2023-02-12T21:13:19.090Z,18.48
2023-02-12T21:16:10.641Z,20.10
2023-02-12T21:18:56.846Z,18.80
2023-02-12T21:21:45.335Z,17.55
2023-02-12T21:24:31.339Z,19.33
2023-02-12T21:27:17.124Z,18.83
2023-02-12T21:30:03.225Z,18.70
2023-02-12T21:32:49.789Z,21.45
2023-02-12T21:35:36.843Z,23.95
2023-02-12T21:38:22.732Z,21.33
2023-02-12T21:41:13.071Z,23.35
2023-02-12T21:44:01.201Z,22.35
2023-02-12T21:46:47.188Z,21.70
2023-02-12T21:49:33.396Z,23.58
2023-02-12T21:52:19.149Z,25.13
2023-02-12T21:55:05.201Z,22.40
2023-02-12T21:57:51.375Z,21.33
2023-02-12T22:00:37.259Z,22.13
2023-02-12T22:03:23.027Z,24.70
2023-02-12T22:06:09.232Z,31.02
2023-02-12T22:09:00.206Z,25.63
2023-02-12T22:11:46.173Z,30.35
2023-02-12T22:14:35.164Z,28.02
2023-02-12T22:17:21.963Z,28.33
2023-02-12T22:20:08.975Z,29.27
2023-02-12T22:22:55.116Z,27.38
2023-02-12T22:25:41.042Z,26.98
2023-02-12T22:28:27.289Z,23.20
2023-02-12T22:31:19.617Z,23.50
2023-02-12T22:34:10.224Z,25.02
2023-02-12T22:36:56.436Z,23.55
2023-02-12T22:39:42.241Z,23.30
2023-02-12T22:42:28.147Z,24.17
2023-02-12T22:45:14.186Z,22.23
2023-02-12T22:48:00.022Z,21.02
2023-02-12T22:50:45.799Z,21.98
2023-02-12T22:53:31.537Z,23.63
2023-02-12T22:56:17.885Z,23.88
2023-02-12T22:59:03.805Z,27.60
2023-02-12T23:01:49.592Z,27.30
2023-02-12T23:04:36.634Z,25.15
2023-02-12T23:07:22.670Z,25.45
2023-02-12T23:10:08.805Z,22.90
2023-02-12T23:12:54.918Z,26.05
2023-02-12T23:15:40.698Z,28.42
2023-02-12T23:18:26.480Z,25.27
2023-02-12T23:21:12.447Z,24.40
2023-02-12T23:24:01.521Z,23.52
2023-02-12T23:26:47.495Z,29.20
2023-02-12T23:29:34.279Z,26.60
2023-02-12T23:32:20.277Z,23.50
2023-02-12T23:35:06.346Z,26.02
2023-02-12T23:37:52.658Z,21.10
2023-02-12T23:40:39.223Z,25.92
2023-02-12T23:43:25.042Z,25.85
2023-02-12T23:46:11.178Z,22.27
2023-02-12T23:48:57.305Z,28.15
2023-02-12T23:51:43.125Z,24.67
2023-02-12T23:54:29.095Z,22.83
2023-02-12T23:57:14.853Z,22.13
